sensor_id;sensor_type;location;lat;lon;timestamp;P1;durP1;ratioP1;P2;durP2;ratioP2
79399;SDS011;68856;45.586;10.264;2023-09-08T00:02:08;4.50;;;4.10;;
79399;SDS011;68856;45.586;10.264;2023-09-08T00:04:35;5.10;;;4.40;;
79399;SDS011;68856;45.586;10.264;2023-09-08T00:07:01;5.57;;;4.00;;
79399;SDS011;68856;45.586;10.264;2023-09-08T00:09:27;5.00;;;4.40;;
79399;SDS011;68856;45.586;10.264;2023-09-08T00:11:54;5.30;;;4.50;;
79399;SDS011;68856;45.586;10.264;2023-09-08T00:14:20;6.55;;;5.15;;
79399;SDS011;68856;45.586;10.264;2023-09-08T00:16:46;4.38;;;3.97;;
79399;SDS011;68856;45.586;10.264;2023-09-08T00:19:13;5.13;;;4.63;;
79399;SDS011;68856;45.586;10.264;2023-09-08T00:21:39;4.63;;;4.20;;
79399;SDS011;68856;45.586;10.264;2023-09-08T00:24:08;4.43;;;4.03;;
79399;SDS011;68856;45.586;10.264;2023-09-08T00:26:35;5.40;;;4.20;;
79399;SDS011;68856;45.586;10.264;2023-09-08T00:29:01;8.00;;;4.60;;
79399;SDS011;68856;45.586;10.264;2023-09-08T00:31:28;5.10;;;4.57;;
79399;SDS011;68856;45.586;10.264;2023-09-08T00:33:54;5.07;;;4.13;;
79399;SDS011;68856;45.586;10.264;2023-09-08T00:36:20;5.32;;;4.80;;
79399;SDS011;68856;45.586;10.264;2023-09-08T00:38:46;5.35;;;4.85;;
79399;SDS011;68856;45.586;10.264;2023-09-08T00:41:13;7.43;;;4.75;;
79399;SDS011;68856;45.586;10.264;2023-09-08T00:43:39;4.97;;;4.40;;
79399;SDS011;68856;45.586;10.264;2023-09-08T00:46:05;5.07;;;4.43;;
79399;SDS011;68856;45.586;10.264;2023-09-08T00:48:33;5.20;;;4.78;;
79399;SDS011;68856;45.586;10.264;2023-09-08T00:51:01;5.30;;;4.30;;
79399;SDS011;68856;45.586;10.264;2023-09-08T00:53:30;5.60;;;4.43;;
79399;SDS011;68856;45.586;10.264;2023-09-08T00:55:56;5.80;;;4.35;;
79399;SDS011;68856;45.586;10.264;2023-09-08T00:58:24;4.53;;;4.13;;
79399;SDS011;68856;45.586;10.264;2023-09-08T01:00:50;5.15;;;4.55;;
79399;SDS011;68856;45.586;10.264;2023-09-08T01:03:17;4.63;;;3.97;;
79399;SDS011;68856;45.586;10.264;2023-09-08T01:05:43;5.00;;;4.35;;
79399;SDS011;68856;45.586;10.264;2023-09-08T01:08:11;4.60;;;4.10;;
79399;SDS011;68856;45.586;10.264;2023-09-08T01:10:40;6.85;;;4.30;;
79399;SDS011;68856;45.586;10.264;2023-09-08T01:13:07;4.95;;;4.35;;
79399;SDS011;68856;45.586;10.264;2023-09-08T01:15:34;5.57;;;4.30;;
79399;SDS011;68856;45.586;10.264;2023-09-08T01:18:01;4.70;;;4.30;;
79399;SDS011;68856;45.586;10.264;2023-09-08T01:20:29;5.13;;;4.43;;
79399;SDS011;68856;45.586;10.264;2023-09-08T01:23:11;5.18;;;4.18;;
79399;SDS011;68856;45.586;10.264;2023-09-08T01:28:15;4.93;;;4.53;;
79399;SDS011;68856;45.586;10.264;2023-09-08T01:30:42;4.85;;;4.32;;
79399;SDS011;68856;45.586;10.264;2023-09-08T01:33:09;6.38;;;4.50;;
79399;SDS011;68856;45.586;10.264;2023-09-08T01:35:36;8.82;;;4.97;;
79399;SDS011;68856;45.586;10.264;2023-09-08T01:38:02;5.18;;;4.18;;
79399;SDS011;68856;45.586;10.264;2023-09-08T01:40:29;4.40;;;4.10;;
79399;SDS011;68856;45.586;10.264;2023-09-08T01:42:55;7.75;;;4.68;;
79399;SDS011;68856;45.586;10.264;2023-09-08T01:45:21;8.55;;;4.90;;
79399;SDS011;68856;45.586;10.264;2023-09-08T01:47:47;6.18;;;4.55;;
79399;SDS011;68856;45.586;10.264;2023-09-08T01:50:14;5.07;;;4.53;;
79399;SDS011;68856;45.586;10.264;2023-09-08T01:52:46;5.95;;;5.10;;
79399;SDS011;68856;45.586;10.264;2023-09-08T01:55:13;5.57;;;5.07;;
79399;SDS011;68856;45.586;10.264;2023-09-08T01:57:41;5.43;;;4.45;;
79399;SDS011;68856;45.586;10.264;2023-09-08T02:00:08;5.30;;;4.80;;
79399;SDS011;68856;45.586;10.264;2023-09-08T02:02:35;7.18;;;4.57;;
79399;SDS011;68856;45.586;10.264;2023-09-08T02:05:02;7.00;;;4.78;;
79399;SDS011;68856;45.586;10.264;2023-09-08T02:07:28;6.00;;;4.90;;
79399;SDS011;68856;45.586;10.264;2023-09-08T02:09:56;5.15;;;4.65;;
79399;SDS011;68856;45.586;10.264;2023-09-08T02:12:22;5.13;;;4.50;;
79399;SDS011;68856;45.586;10.264;2023-09-08T02:14:48;6.03;;;5.10;;
79399;SDS011;68856;45.586;10.264;2023-09-08T02:17:17;5.57;;;4.97;;
79399;SDS011;68856;45.586;10.264;2023-09-08T02:19:43;5.13;;;4.63;;
79399;SDS011;68856;45.586;10.264;2023-09-08T02:22:09;5.53;;;4.53;;
79399;SDS011;68856;45.586;10.264;2023-09-08T02:24:36;5.47;;;4.72;;
79399;SDS011;68856;45.586;10.264;2023-09-08T02:27:02;6.65;;;4.70;;
79399;SDS011;68856;45.586;10.264;2023-09-08T02:29:28;4.70;;;4.28;;
79399;SDS011;68856;45.586;10.264;2023-09-08T02:31:56;5.22;;;4.65;;
79399;SDS011;68856;45.586;10.264;2023-09-08T02:34:22;5.20;;;4.70;;
79399;SDS011;68856;45.586;10.264;2023-09-08T02:36:48;4.95;;;4.25;;
79399;SDS011;68856;45.586;10.264;2023-09-08T02:39:16;6.38;;;4.63;;
79399;SDS011;68856;45.586;10.264;2023-09-08T02:41:42;7.28;;;4.90;;
79399;SDS011;68856;45.586;10.264;2023-09-08T02:44:08;7.00;;;5.03;;
79399;SDS011;68856;45.586;10.264;2023-09-08T02:46:34;5.00;;;4.50;;
79399;SDS011;68856;45.586;10.264;2023-09-08T02:49:01;7.40;;;4.80;;
79399;SDS011;68856;45.586;10.264;2023-09-08T02:51:27;6.32;;;4.95;;
79399;SDS011;68856;45.586;10.264;2023-09-08T02:53:53;6.80;;;5.25;;
79399;SDS011;68856;45.586;10.264;2023-09-08T02:56:20;5.30;;;4.80;;
79399;SDS011;68856;45.586;10.264;2023-09-08T02:58:46;4.95;;;4.45;;
79399;SDS011;68856;45.586;10.264;2023-09-08T03:01:16;5.35;;;4.63;;
79399;SDS011;68856;45.586;10.264;2023-09-08T03:03:45;8.00;;;4.65;;
79399;SDS011;68856;45.586;10.264;2023-09-08T03:06:14;6.10;;;4.65;;
79399;SDS011;68856;45.586;10.264;2023-09-08T03:08:45;7.65;;;5.47;;
79399;SDS011;68856;45.586;10.264;2023-09-08T03:11:12;5.35;;;4.75;;
79399;SDS011;68856;45.586;10.264;2023-09-08T03:13:38;5.60;;;5.00;;
79399;SDS011;68856;45.586;10.264;2023-09-08T03:16:04;6.53;;;5.20;;
79399;SDS011;68856;45.586;10.264;2023-09-08T03:18:32;7.15;;;5.15;;
79399;SDS011;68856;45.586;10.264;2023-09-08T03:21:01;5.63;;;5.13;;
79399;SDS011;68856;45.586;10.264;2023-09-08T03:23:35;5.68;;;5.18;;
79399;SDS011;68856;45.586;10.264;2023-09-08T03:26:05;7.75;;;5.57;;
79399;SDS011;68856;45.586;10.264;2023-09-08T03:28:33;6.18;;;5.05;;
79399;SDS011;68856;45.586;10.264;2023-09-08T03:31:03;8.50;;;5.10;;
79399;SDS011;68856;45.586;10.264;2023-09-08T03:33:30;11.15;;;5.47;;
79399;SDS011;68856;45.586;10.264;2023-09-08T03:35:56;6.47;;;5.10;;
79399;SDS011;68856;45.586;10.264;2023-09-08T03:38:23;7.00;;;5.75;;
79399;SDS011;68856;45.586;10.264;2023-09-08T03:40:49;6.60;;;4.75;;
79399;SDS011;68856;45.586;10.264;2023-09-08T03:43:15;6.00;;;5.38;;
79399;SDS011;68856;45.586;10.264;2023-09-08T03:45:42;5.97;;;4.65;;
79399;SDS011;68856;45.586;10.264;2023-09-08T03:48:08;7.72;;;5.30;;
79399;SDS011;68856;45.586;10.264;2023-09-08T03:50:34;6.30;;;5.40;;
79399;SDS011;68856;45.586;10.264;2023-09-08T03:53:01;5.60;;;5.00;;
79399;SDS011;68856;45.586;10.264;2023-09-08T03:55:27;6.68;;;5.00;;
79399;SDS011;68856;45.586;10.264;2023-09-08T03:57:53;5.53;;;4.90;;
79399;SDS011;68856;45.586;10.264;2023-09-08T04:00:20;5.70;;;5.10;;
79399;SDS011;68856;45.586;10.264;2023-09-08T04:02:48;5.70;;;4.75;;
79399;SDS011;68856;45.586;10.264;2023-09-08T04:05:15;7.47;;;4.90;;
79399;SDS011;68856;45.586;10.264;2023-09-08T04:07:42;6.75;;;5.18;;
79399;SDS011;68856;45.586;10.264;2023-09-08T04:10:09;5.43;;;4.93;;
79399;SDS011;68856;45.586;10.264;2023-09-08T04:12:36;5.05;;;4.55;;
79399;SDS011;68856;45.586;10.264;2023-09-08T04:15:02;5.57;;;5.07;;
79399;SDS011;68856;45.586;10.264;2023-09-08T04:17:28;5.57;;;5.03;;
79399;SDS011;68856;45.586;10.264;2023-09-08T04:19:55;6.80;;;5.10;;
79399;SDS011;68856;45.586;10.264;2023-09-08T04:22:21;5.43;;;4.80;;
79399;SDS011;68856;45.586;10.264;2023-09-08T04:24:47;5.55;;;5.05;;
79399;SDS011;68856;45.586;10.264;2023-09-08T04:27:13;5.82;;;5.22;;
79399;SDS011;68856;45.586;10.264;2023-09-08T04:29:40;5.30;;;4.80;;
79399;SDS011;68856;45.586;10.264;2023-09-08T04:32:06;7.70;;;5.07;;
79399;SDS011;68856;45.586;10.264;2023-09-08T04:34:37;5.75;;;5.00;;
79399;SDS011;68856;45.586;10.264;2023-09-08T04:37:04;7.78;;;4.93;;
79399;SDS011;68856;45.586;10.264;2023-09-08T04:39:31;5.65;;;5.15;;
79399;SDS011;68856;45.586;10.264;2023-09-08T04:41:58;7.10;;;5.07;;
79399;SDS011;68856;45.586;10.264;2023-09-08T04:44:24;7.38;;;5.13;;
79399;SDS011;68856;45.586;10.264;2023-09-08T04:46:54;7.00;;;5.22;;
79399;SDS011;68856;45.586;10.264;2023-09-08T04:49:20;5.68;;;5.03;;
79399;SDS011;68856;45.586;10.264;2023-09-08T04:51:46;9.80;;;5.30;;
79399;SDS011;68856;45.586;10.264;2023-09-08T04:54:13;6.13;;;5.00;;
79399;SDS011;68856;45.586;10.264;2023-09-08T04:56:39;6.43;;;4.55;;
79399;SDS011;68856;45.586;10.264;2023-09-08T04:59:06;6.15;;;5.55;;
79399;SDS011;68856;45.586;10.264;2023-09-08T05:01:32;5.35;;;4.85;;
79399;SDS011;68856;45.586;10.264;2023-09-08T05:04:01;6.90;;;5.22;;
79399;SDS011;68856;45.586;10.264;2023-09-08T05:06:28;5.60;;;5.10;;
79399;SDS011;68856;45.586;10.264;2023-09-08T05:08:55;5.63;;;4.95;;
79399;SDS011;68856;45.586;10.264;2023-09-08T05:11:21;5.63;;;4.95;;
79399;SDS011;68856;45.586;10.264;2023-09-08T05:13:47;8.18;;;5.63;;
79399;SDS011;68856;45.586;10.264;2023-09-08T05:16:13;6.53;;;5.13;;
79399;SDS011;68856;45.586;10.264;2023-09-08T05:18:40;5.90;;;5.18;;
79399;SDS011;68856;45.586;10.264;2023-09-08T05:21:07;9.00;;;5.53;;
79399;SDS011;68856;45.586;10.264;2023-09-08T05:23:33;6.15;;;5.55;;
79399;SDS011;68856;45.586;10.264;2023-09-08T05:26:00;7.65;;;5.40;;
79399;SDS011;68856;45.586;10.264;2023-09-08T05:28:26;8.43;;;5.10;;
79399;SDS011;68856;45.586;10.264;2023-09-08T05:30:53;7.28;;;5.72;;
79399;SDS011;68856;45.586;10.264;2023-09-08T05:33:19;9.70;;;5.43;;
79399;SDS011;68856;45.586;10.264;2023-09-08T05:35:46;5.88;;;4.80;;
79399;SDS011;68856;45.586;10.264;2023-09-08T05:38:12;6.65;;;4.97;;
79399;SDS011;68856;45.586;10.264;2023-09-08T05:40:39;6.43;;;5.63;;
79399;SDS011;68856;45.586;10.264;2023-09-08T05:43:05;7.25;;;5.57;;
79399;SDS011;68856;45.586;10.264;2023-09-08T05:45:32;8.68;;;5.47;;
79399;SDS011;68856;45.586;10.264;2023-09-08T05:47:59;10.13;;;5.78;;
79399;SDS011;68856;45.586;10.264;2023-09-08T05:50:26;5.72;;;5.18;;
79399;SDS011;68856;45.586;10.264;2023-09-08T05:52:52;8.45;;;5.18;;
79399;SDS011;68856;45.586;10.264;2023-09-08T05:55:18;5.88;;;5.25;;
79399;SDS011;68856;45.586;10.264;2023-09-08T05:57:45;6.72;;;5.50;;
79399;SDS011;68856;45.586;10.264;2023-09-08T06:00:12;6.78;;;5.07;;
79399;SDS011;68856;45.586;10.264;2023-09-08T06:02:38;6.78;;;5.03;;
79399;SDS011;68856;45.586;10.264;2023-09-08T06:05:05;5.50;;;4.88;;
79399;SDS011;68856;45.586;10.264;2023-09-08T06:07:31;7.72;;;5.25;;
79399;SDS011;68856;45.586;10.264;2023-09-08T06:09:57;5.65;;;5.15;;
79399;SDS011;68856;45.586;10.264;2023-09-08T06:12:24;6.28;;;4.97;;
79399;SDS011;68856;45.586;10.264;2023-09-08T06:14:50;6.45;;;5.20;;
79399;SDS011;68856;45.586;10.264;2023-09-08T06:17:16;5.90;;;5.40;;
79399;SDS011;68856;45.586;10.264;2023-09-08T06:19:42;6.93;;;5.10;;
79399;SDS011;68856;45.586;10.264;2023-09-08T06:22:08;7.43;;;4.97;;
79399;SDS011;68856;45.586;10.264;2023-09-08T06:24:35;5.45;;;4.93;;
79399;SDS011;68856;45.586;10.264;2023-09-08T06:27:01;5.35;;;4.85;;
79399;SDS011;68856;45.586;10.264;2023-09-08T06:29:27;5.90;;;5.22;;
79399;SDS011;68856;45.586;10.264;2023-09-08T06:31:54;5.72;;;5.13;;
79399;SDS011;68856;45.586;10.264;2023-09-08T06:34:20;5.80;;;5.20;;
79399;SDS011;68856;45.586;10.264;2023-09-08T06:36:48;6.35;;;5.13;;
79399;SDS011;68856;45.586;10.264;2023-09-08T06:39:14;5.25;;;4.75;;
79399;SDS011;68856;45.586;10.264;2023-09-08T06:41:40;5.75;;;4.95;;
79399;SDS011;68856;45.586;10.264;2023-09-08T06:44:07;8.80;;;5.25;;
79399;SDS011;68856;45.586;10.264;2023-09-08T06:46:33;8.10;;;5.68;;
79399;SDS011;68856;45.586;10.264;2023-09-08T06:48:59;8.80;;;5.47;;
79399;SDS011;68856;45.586;10.264;2023-09-08T06:51:25;8.30;;;4.95;;
79399;SDS011;68856;45.586;10.264;2023-09-08T06:53:55;6.95;;;5.45;;
79399;SDS011;68856;45.586;10.264;2023-09-08T06:56:22;6.72;;;4.82;;
79399;SDS011;68856;45.586;10.264;2023-09-08T06:58:49;5.80;;;5.03;;
79399;SDS011;68856;45.586;10.264;2023-09-08T07:01:15;6.60;;;5.22;;
79399;SDS011;68856;45.586;10.264;2023-09-08T07:03:41;5.82;;;5.05;;
79399;SDS011;68856;45.586;10.264;2023-09-08T07:06:07;7.22;;;4.75;;
79399;SDS011;68856;45.586;10.264;2023-09-08T07:08:34;5.60;;;4.90;;
79399;SDS011;68856;45.586;10.264;2023-09-08T07:11:00;7.50;;;4.88;;
79399;SDS011;68856;45.586;10.264;2023-09-08T07:13:26;5.90;;;4.75;;
79399;SDS011;68856;45.586;10.264;2023-09-08T07:15:53;7.88;;;5.28;;
79399;SDS011;68856;45.586;10.264;2023-09-08T07:18:19;6.32;;;5.00;;
79399;SDS011;68856;45.586;10.264;2023-09-08T07:20:48;6.13;;;5.20;;
79399;SDS011;68856;45.586;10.264;2023-09-08T07:23:16;6.50;;;4.83;;
79399;SDS011;68856;45.586;10.264;2023-09-08T07:25:48;5.40;;;4.90;;
79399;SDS011;68856;45.586;10.264;2023-09-08T07:28:15;5.70;;;4.90;;
79399;SDS011;68856;45.586;10.264;2023-09-08T07:30:42;6.15;;;4.93;;
79399;SDS011;68856;45.586;10.264;2023-09-08T07:33:08;5.97;;;5.38;;
79399;SDS011;68856;45.586;10.264;2023-09-08T07:35:38;7.63;;;5.35;;
79399;SDS011;68856;45.586;10.264;2023-09-08T07:38:05;7.25;;;4.88;;
79399;SDS011;68856;45.586;10.264;2023-09-08T07:40:35;6.20;;;5.30;;
79399;SDS011;68856;45.586;10.264;2023-09-08T07:43:01;5.87;;;5.30;;
79399;SDS011;68856;45.586;10.264;2023-09-08T07:45:28;6.30;;;5.70;;
79399;SDS011;68856;45.586;10.264;2023-09-08T07:47:54;7.03;;;5.47;;
79399;SDS011;68856;45.586;10.264;2023-09-08T07:52:49;9.32;;;5.45;;
79399;SDS011;68856;45.586;10.264;2023-09-08T07:55:16;8.00;;;5.30;;
79399;SDS011;68856;45.586;10.264;2023-09-08T07:57:44;9.52;;;5.00;;
79399;SDS011;68856;45.586;10.264;2023-09-08T08:00:11;7.68;;;5.05;;
79399;SDS011;68856;45.586;10.264;2023-09-08T08:02:42;9.00;;;5.68;;
79399;SDS011;68856;45.586;10.264;2023-09-08T08:05:27;7.85;;;6.03;;
79399;SDS011;68856;45.586;10.264;2023-09-08T08:07:53;6.72;;;6.03;;
79399;SDS011;68856;45.586;10.264;2023-09-08T08:10:19;8.38;;;6.03;;
79399;SDS011;68856;45.586;10.264;2023-09-08T08:12:46;13.30;;;5.85;;
79399;SDS011;68856;45.586;10.264;2023-09-08T08:15:12;16.00;;;6.38;;
79399;SDS011;68856;45.586;10.264;2023-09-08T08:17:39;8.77;;;5.90;;
79399;SDS011;68856;45.586;10.264;2023-09-08T08:20:06;8.15;;;5.05;;
79399;SDS011;68856;45.586;10.264;2023-09-08T08:22:35;6.28;;;5.10;;
79399;SDS011;68856;45.586;10.264;2023-09-08T08:25:02;9.00;;;6.03;;
79399;SDS011;68856;45.586;10.264;2023-09-08T08:27:29;11.32;;;5.10;;
79399;SDS011;68856;45.586;10.264;2023-09-08T08:29:56;5.28;;;4.75;;
79399;SDS011;68856;45.586;10.264;2023-09-08T08:32:25;11.20;;;5.30;;
79399;SDS011;68856;45.586;10.264;2023-09-08T08:34:52;6.65;;;4.97;;
79399;SDS011;68856;45.586;10.264;2023-09-08T08:37:18;7.53;;;5.57;;
79399;SDS011;68856;45.586;10.264;2023-09-08T08:39:45;6.60;;;4.90;;
79399;SDS011;68856;45.586;10.264;2023-09-08T08:42:11;7.13;;;5.05;;
79399;SDS011;68856;45.586;10.264;2023-09-08T08:44:38;6.47;;;4.95;;
79399;SDS011;68856;45.586;10.264;2023-09-08T08:47:09;6.05;;;5.18;;
79399;SDS011;68856;45.586;10.264;2023-09-08T08:49:37;7.82;;;5.00;;
79399;SDS011;68856;45.586;10.264;2023-09-08T08:52:07;5.43;;;4.43;;
79399;SDS011;68856;45.586;10.264;2023-09-08T08:54:35;6.45;;;4.90;;
79399;SDS011;68856;45.586;10.264;2023-09-08T08:57:04;6.63;;;4.82;;
79399;SDS011;68856;45.586;10.264;2023-09-08T08:59:32;8.23;;;5.40;;
79399;SDS011;68856;45.586;10.264;2023-09-08T09:01:59;7.05;;;5.25;;
79399;SDS011;68856;45.586;10.264;2023-09-08T09:04:27;6.43;;;5.10;;
79399;SDS011;68856;45.586;10.264;2023-09-08T09:06:54;7.53;;;5.28;;
79399;SDS011;68856;45.586;10.264;2023-09-08T09:09:20;6.03;;;4.88;;
79399;SDS011;68856;45.586;10.264;2023-09-08T09:11:48;8.15;;;4.57;;
79399;SDS011;68856;45.586;10.264;2023-09-08T09:14:15;5.53;;;4.57;;
79399;SDS011;68856;45.586;10.264;2023-09-08T09:16:42;6.63;;;4.35;;
79399;SDS011;68856;45.586;10.264;2023-09-08T09:19:09;5.38;;;4.55;;
79399;SDS011;68856;45.586;10.264;2023-09-08T09:21:43;8.32;;;5.13;;
79399;SDS011;68856;45.586;10.264;2023-09-08T09:24:33;4.78;;;4.35;;
79399;SDS011;68856;45.586;10.264;2023-09-08T09:27:03;8.10;;;4.78;;
79399;SDS011;68856;45.586;10.264;2023-09-08T09:29:33;8.98;;;4.30;;
79399;SDS011;68856;45.586;10.264;2023-09-08T09:32:10;6.82;;;4.57;;
79399;SDS011;68856;45.586;10.264;2023-09-08T09:34:36;5.97;;;4.50;;
79399;SDS011;68856;45.586;10.264;2023-09-08T09:37:18;4.82;;;4.32;;
79399;SDS011;68856;45.586;10.264;2023-09-08T09:39:51;8.57;;;4.53;;
79399;SDS011;68856;45.586;10.264;2023-09-08T09:42:19;5.03;;;4.35;;
79399;SDS011;68856;45.586;10.264;2023-09-08T09:44:49;6.85;;;4.25;;
79399;SDS011;68856;45.586;10.264;2023-09-08T09:47:17;5.55;;;4.40;;
79399;SDS011;68856;45.586;10.264;2023-09-08T09:49:45;6.88;;;4.47;;
79399;SDS011;68856;45.586;10.264;2023-09-08T09:52:14;6.35;;;4.75;;
79399;SDS011;68856;45.586;10.264;2023-09-08T09:54:46;7.60;;;4.22;;
79399;SDS011;68856;45.586;10.264;2023-09-08T09:57:13;5.70;;;4.60;;
79399;SDS011;68856;45.586;10.264;2023-09-08T09:59:42;7.88;;;4.85;;
79399;SDS011;68856;45.586;10.264;2023-09-08T10:02:13;4.93;;;4.53;;
79399;SDS011;68856;45.586;10.264;2023-09-08T10:04:40;8.55;;;4.95;;
79399;SDS011;68856;45.586;10.264;2023-09-08T10:07:07;6.55;;;5.32;;
79399;SDS011;68856;45.586;10.264;2023-09-08T10:09:35;7.47;;;4.85;;
79399;SDS011;68856;45.586;10.264;2023-09-08T10:12:05;5.30;;;4.70;;
79399;SDS011;68856;45.586;10.264;2023-09-08T10:14:35;6.93;;;4.55;;
79399;SDS011;68856;45.586;10.264;2023-09-08T10:17:05;7.10;;;4.50;;
79399;SDS011;68856;45.586;10.264;2023-09-08T10:19:41;6.53;;;5.10;;
79399;SDS011;68856;45.586;10.264;2023-09-08T10:22:14;7.90;;;5.13;;
79399;SDS011;68856;45.586;10.264;2023-09-08T10:24:44;5.05;;;4.30;;
79399;SDS011;68856;45.586;10.264;2023-09-08T10:27:13;5.78;;;5.05;;
79399;SDS011;68856;45.586;10.264;2023-09-08T10:29:40;7.85;;;5.10;;
79399;SDS011;68856;45.586;10.264;2023-09-08T10:32:09;5.15;;;4.45;;
79399;SDS011;68856;45.586;10.264;2023-09-08T10:34:36;10.45;;;5.85;;
79399;SDS011;68856;45.586;10.264;2023-09-08T10:37:03;5.80;;;5.20;;
79399;SDS011;68856;45.586;10.264;2023-09-08T10:39:47;7.20;;;5.25;;
79399;SDS011;68856;45.586;10.264;2023-09-08T10:47:24;5.50;;;4.93;;
79399;SDS011;68856;45.586;10.264;2023-09-08T10:49:51;8.63;;;5.13;;
79399;SDS011;68856;45.586;10.264;2023-09-08T10:52:23;6.43;;;4.88;;
79399;SDS011;68856;45.586;10.264;2023-09-08T10:54:50;6.65;;;5.55;;
79399;SDS011;68856;45.586;10.264;2023-09-08T10:57:22;5.90;;;5.03;;
79399;SDS011;68856;45.586;10.264;2023-09-08T11:02:34;6.40;;;5.38;;
79399;SDS011;68856;45.586;10.264;2023-09-08T11:05:08;5.72;;;5.22;;
79399;SDS011;68856;45.586;10.264;2023-09-08T11:07:41;6.25;;;5.63;;
79399;SDS011;68856;45.586;10.264;2023-09-08T11:10:08;6.80;;;6.10;;
79399;SDS011;68856;45.586;10.264;2023-09-08T11:12:36;8.27;;;5.45;;
79399;SDS011;68856;45.586;10.264;2023-09-08T11:15:03;6.05;;;5.30;;
79399;SDS011;68856;45.586;10.264;2023-09-08T11:17:32;8.75;;;5.57;;
79399;SDS011;68856;45.586;10.264;2023-09-08T11:20:00;6.88;;;5.68;;
79399;SDS011;68856;45.586;10.264;2023-09-08T11:22:35;11.15;;;5.32;;
79399;SDS011;68856;45.586;10.264;2023-09-08T11:25:02;7.70;;;5.38;;
79399;SDS011;68856;45.586;10.264;2023-09-08T11:27:31;8.10;;;5.72;;
79399;SDS011;68856;45.586;10.264;2023-09-08T11:29:57;6.15;;;5.47;;
79399;SDS011;68856;45.586;10.264;2023-09-08T11:32:24;6.88;;;5.28;;
79399;SDS011;68856;45.586;10.264;2023-09-08T11:35:00;8.25;;;6.00;;
79399;SDS011;68856;45.586;10.264;2023-09-08T11:37:34;7.28;;;5.80;;
79399;SDS011;68856;45.586;10.264;2023-09-08T11:40:05;9.20;;;5.90;;
79399;SDS011;68856;45.586;10.264;2023-09-08T11:42:38;7.53;;;6.15;;
79399;SDS011;68856;45.586;10.264;2023-09-08T11:45:14;6.57;;;5.97;;
79399;SDS011;68856;45.586;10.264;2023-09-08T11:47:46;6.57;;;5.90;;
79399;SDS011;68856;45.586;10.264;2023-09-08T11:50:14;7.38;;;6.00;;
79399;SDS011;68856;45.586;10.264;2023-09-08T11:52:47;6.35;;;5.85;;
79399;SDS011;68856;45.586;10.264;2023-09-08T11:55:14;6.00;;;5.28;;
79399;SDS011;68856;45.586;10.264;2023-09-08T11:57:41;6.25;;;5.65;;
79399;SDS011;68856;45.586;10.264;2023-09-08T12:00:10;5.88;;;5.30;;
79399;SDS011;68856;45.586;10.264;2023-09-08T12:02:39;8.20;;;6.07;;
79399;SDS011;68856;45.586;10.264;2023-09-08T12:05:10;8.68;;;6.00;;
79399;SDS011;68856;45.586;10.264;2023-09-08T12:07:46;6.75;;;6.15;;
79399;SDS011;68856;45.586;10.264;2023-09-08T12:10:14;6.90;;;6.25;;
79399;SDS011;68856;45.586;10.264;2023-09-08T12:12:46;7.53;;;6.03;;
79399;SDS011;68856;45.586;10.264;2023-09-08T12:15:38;8.75;;;6.30;;
79399;SDS011;68856;45.586;10.264;2023-09-08T12:20:33;7.82;;;5.18;;
79399;SDS011;68856;45.586;10.264;2023-09-08T12:23:01;14.40;;;6.03;;
79399;SDS011;68856;45.586;10.264;2023-09-08T12:25:43;6.10;;;5.35;;
79399;SDS011;68856;45.586;10.264;2023-09-08T12:28:18;8.88;;;5.82;;
79399;SDS011;68856;45.586;10.264;2023-09-08T12:30:45;7.45;;;5.60;;
79399;SDS011;68856;45.586;10.264;2023-09-08T12:33:12;8.93;;;5.68;;
79399;SDS011;68856;45.586;10.264;2023-09-08T12:35:45;10.55;;;5.78;;
79399;SDS011;68856;45.586;10.264;2023-09-08T12:38:17;6.88;;;6.18;;
79399;SDS011;68856;45.586;10.264;2023-09-08T12:40:44;10.60;;;6.22;;
79399;SDS011;68856;45.586;10.264;2023-09-08T12:43:10;13.27;;;6.35;;
79399;SDS011;68856;45.586;10.264;2023-09-08T12:45:36;13.45;;;6.00;;
79399;SDS011;68856;45.586;10.264;2023-09-08T12:48:03;12.90;;;6.63;;
79399;SDS011;68856;45.586;10.264;2023-09-08T12:50:31;8.57;;;6.65;;
79399;SDS011;68856;45.586;10.264;2023-09-08T12:52:58;8.85;;;6.28;;
79399;SDS011;68856;45.586;10.264;2023-09-08T12:55:24;8.27;;;6.35;;
79399;SDS011;68856;45.586;10.264;2023-09-08T12:57:50;6.97;;;6.07;;
79399;SDS011;68856;45.586;10.264;2023-09-08T13:00:21;7.80;;;6.22;;
79399;SDS011;68856;45.586;10.264;2023-09-08T13:02:50;9.85;;;6.13;;
79399;SDS011;68856;45.586;10.264;2023-09-08T13:05:17;7.18;;;6.13;;
79399;SDS011;68856;45.586;10.264;2023-09-08T13:07:43;6.68;;;6.03;;
79399;SDS011;68856;45.586;10.264;2023-09-08T13:10:09;7.93;;;6.20;;
79399;SDS011;68856;45.586;10.264;2023-09-08T13:12:35;10.02;;;6.20;;
79399;SDS011;68856;45.586;10.264;2023-09-08T13:15:02;10.65;;;7.03;;
79399;SDS011;68856;45.586;10.264;2023-09-08T13:17:28;9.38;;;6.10;;
79399;SDS011;68856;45.586;10.264;2023-09-08T13:19:54;8.07;;;6.97;;
79399;SDS011;68856;45.586;10.264;2023-09-08T13:22:21;7.22;;;6.18;;
79399;SDS011;68856;45.586;10.264;2023-09-08T13:24:47;9.70;;;6.20;;
79399;SDS011;68856;45.586;10.264;2023-09-08T13:27:14;6.32;;;5.57;;
79399;SDS011;68856;45.586;10.264;2023-09-08T13:29:42;10.23;;;6.13;;
79399;SDS011;68856;45.586;10.264;2023-09-08T13:32:08;6.88;;;6.13;;
79399;SDS011;68856;45.586;10.264;2023-09-08T13:34:35;12.23;;;7.05;;
79399;SDS011;68856;45.586;10.264;2023-09-08T13:37:03;6.65;;;6.05;;
79399;SDS011;68856;45.586;10.264;2023-09-08T13:39:29;10.27;;;6.20;;
79399;SDS011;68856;45.586;10.264;2023-09-08T13:41:58;9.90;;;6.43;;
79399;SDS011;68856;45.586;10.264;2023-09-08T13:44:25;11.07;;;6.20;;
79399;SDS011;68856;45.586;10.264;2023-09-08T13:46:53;8.60;;;6.70;;
79399;SDS011;68856;45.586;10.264;2023-09-08T13:49:20;7.72;;;6.38;;
79399;SDS011;68856;45.586;10.264;2023-09-08T13:51:47;7.22;;;6.63;;
79399;SDS011;68856;45.586;10.264;2023-09-08T13:54:18;9.57;;;6.57;;
79399;SDS011;68856;45.586;10.264;2023-09-08T13:56:44;7.80;;;6.85;;
79399;SDS011;68856;45.586;10.264;2023-09-08T13:59:21;8.35;;;6.00;;
79399;SDS011;68856;45.586;10.264;2023-09-08T14:01:48;6.28;;;5.75;;
79399;SDS011;68856;45.586;10.264;2023-09-08T14:04:14;8.68;;;6.22;;
79399;SDS011;68856;45.586;10.264;2023-09-08T14:06:40;7.68;;;6.03;;
79399;SDS011;68856;45.586;10.264;2023-09-08T14:09:07;12.50;;;7.63;;
79399;SDS011;68856;45.586;10.264;2023-09-08T14:11:33;8.68;;;6.88;;
79399;SDS011;68856;45.586;10.264;2023-09-08T14:13:59;8.30;;;7.03;;
79399;SDS011;68856;45.586;10.264;2023-09-08T14:16:25;7.18;;;6.13;;
79399;SDS011;68856;45.586;10.264;2023-09-08T14:18:52;8.18;;;7.07;;
79399;SDS011;68856;45.586;10.264;2023-09-08T14:21:18;7.00;;;6.40;;
79399;SDS011;68856;45.586;10.264;2023-09-08T14:23:44;7.75;;;6.47;;
79399;SDS011;68856;45.586;10.264;2023-09-08T14:26:11;11.25;;;6.82;;
79399;SDS011;68856;45.586;10.264;2023-09-08T14:28:37;8.93;;;7.20;;
79399;SDS011;68856;45.586;10.264;2023-09-08T14:31:04;11.48;;;7.07;;
79399;SDS011;68856;45.586;10.264;2023-09-08T14:33:30;7.18;;;6.50;;
79399;SDS011;68856;45.586;10.264;2023-09-08T14:35:56;8.13;;;7.43;;
79399;SDS011;68856;45.586;10.264;2023-09-08T14:38:23;9.68;;;6.50;;
79399;SDS011;68856;45.586;10.264;2023-09-08T14:43:23;9.75;;;7.15;;
79399;SDS011;68856;45.586;10.264;2023-09-08T14:45:50;8.15;;;6.45;;
79399;SDS011;68856;45.586;10.264;2023-09-08T14:48:17;9.18;;;6.88;;
79399;SDS011;68856;45.586;10.264;2023-09-08T14:50:44;7.05;;;6.35;;
79399;SDS011;68856;45.586;10.264;2023-09-08T14:53:11;11.38;;;6.50;;
79399;SDS011;68856;45.586;10.264;2023-09-08T14:55:37;8.30;;;5.80;;